Impacts TAF Board
For situational awareness. Not to be used for flight planning purposes.
IDs:

KBBD - Brady/Curtis Fld, TX, US

Issued at 2023 UTC 21 May 2022
Updated at 2302 UTC 21 May 2022
Potential Impact None Slight Moderate High
Time0000Z 22/00Z 22/01Z 22/02Z 22/03Z 22/04Z 22/05Z 22/06Z 22/07Z 22/08Z 22/09Z 22/10Z 22/11Z 22/12Z>>
Type OBS PRVL PRVL PRVL PRVL PRVL PRVL PRVL PRVL PRVL PRVL PRVL PRVL PRVL
VIS >6 >6 >6 >6 >6 >6 >6 >6 >6 >6 >6 >6 >6
CIG 90 90 80 80 80 80 80 60 60 60 60 60 60
Cover BKN BKN OVC OVC OVC OVC OVC BKN BKN BKN BKN BKN BKN
FltCat VFR VFR VFR VFR VFR VFR VFR VFR VFR VFR VFR VFR VFR
WX VCTS VCTS -- -- -- -- -- -- -- -- -- -- --
WDir 360 360 30 30 30 30 30 20 20 20 20 20 20
WSpd 12 12 15 15 15 15 15 12 12 12 12 12 12
WGst 22 22 25 25 25 25 25 -- -- -- -- -- --
WSHgt -- -- -- -- -- -- -- -- -- -- -- -- --
WSDir -- -- -- -- -- -- -- -- -- -- -- -- --
WSSpd -- -- -- -- -- -- -- -- -- -- -- -- --
Raw TAF
KBBD 212023Z 2120/2218 36012G22KT 1SM TSRAGR BKN060CB
  FM212130 36012G22KT P6SM VCTS BKN090CB
  FM220200 03015G25KT P6SM SCT050 OVC080
  FM220700 02012KT P6SM SCT040 BKN060
  FM221500 01010KT P6SM SCT080 BKN120 AMD NOT SKED


Raw METAR


METAR Board
Radar Display
Forecast Discussion
For situational awareness. Not to be used for flight planning purposes.